sensor_id;sensor_type;location;lat;lon;timestamp;pressure;altitude;pressure_sealevel;temperature
22828;BMP180;11580;52.562;13.418;2023-07-29T00:01:59;99972.00;;;22.20
22828;BMP180;11580;52.562;13.418;2023-07-29T00:04:26;99968.00;;;22.20
22828;BMP180;11580;52.562;13.418;2023-07-29T00:06:54;99970.00;;;22.20
22828;BMP180;11580;52.562;13.418;2023-07-29T00:09:22;99943.00;;;22.10
22828;BMP180;11580;52.562;13.418;2023-07-29T00:11:49;99970.00;;;22.10
22828;BMP180;11580;52.562;13.418;2023-07-29T00:14:16;99964.00;;;22.00
22828;BMP180;11580;52.562;13.418;2023-07-29T00:16:43;99961.00;;;22.00
22828;BMP180;11580;52.562;13.418;2023-07-29T00:19:11;99966.00;;;22.00
22828;BMP180;11580;52.562;13.418;2023-07-29T00:21:38;99958.00;;;22.00
22828;BMP180;11580;52.562;13.418;2023-07-29T00:24:05;99956.00;;;21.90
22828;BMP180;11580;52.562;13.418;2023-07-29T00:26:34;99951.00;;;21.90
22828;BMP180;11580;52.562;13.418;2023-07-29T00:29:01;99957.00;;;21.80
22828;BMP180;11580;52.562;13.418;2023-07-29T00:31:28;99951.00;;;21.80
22828;BMP180;11580;52.562;13.418;2023-07-29T00:33:57;99950.00;;;21.80
22828;BMP180;11580;52.562;13.418;2023-07-29T00:36:25;99952.00;;;21.70
22828;BMP180;11580;52.562;13.418;2023-07-29T00:38:52;99952.00;;;21.70
22828;BMP180;11580;52.562;13.418;2023-07-29T00:41:23;99950.00;;;21.70
22828;BMP180;11580;52.562;13.418;2023-07-29T00:43:54;99955.00;;;21.70
22828;BMP180;11580;52.562;13.418;2023-07-29T00:46:22;99955.00;;;21.70
22828;BMP180;11580;52.562;13.418;2023-07-29T00:48:50;99954.00;;;21.60
22828;BMP180;11580;52.562;13.418;2023-07-29T00:51:17;99953.00;;;21.60
22828;BMP180;11580;52.562;13.418;2023-07-29T00:53:44;99952.00;;;21.60
22828;BMP180;11580;52.562;13.418;2023-07-29T00:56:12;99956.00;;;21.50
22828;BMP180;11580;52.562;13.418;2023-07-29T00:58:40;99951.00;;;21.50
22828;BMP180;11580;52.562;13.418;2023-07-29T01:01:09;99953.00;;;21.50
22828;BMP180;11580;52.562;13.418;2023-07-29T01:03:36;99943.00;;;21.50
22828;BMP180;11580;52.562;13.418;2023-07-29T01:06:14;99952.00;;;21.50
22828;BMP180;11580;52.562;13.418;2023-07-29T01:08:55;99942.00;;;21.40
22828;BMP180;11580;52.562;13.418;2023-07-29T01:11:41;99935.00;;;21.40
22828;BMP180;11580;52.562;13.418;2023-07-29T01:14:21;99930.00;;;21.40
22828;BMP180;11580;52.562;13.418;2023-07-29T01:16:56;99938.00;;;21.40
22828;BMP180;11580;52.562;13.418;2023-07-29T01:19:43;99921.00;;;21.30
22828;BMP180;11580;52.562;13.418;2023-07-29T01:22:16;99926.00;;;21.30
22828;BMP180;11580;52.562;13.418;2023-07-29T01:24:45;99916.00;;;21.30
22828;BMP180;11580;52.562;13.418;2023-07-29T01:27:12;99917.00;;;21.30
22828;BMP180;11580;52.562;13.418;2023-07-29T01:29:40;99913.00;;;21.30
22828;BMP180;11580;52.562;13.418;2023-07-29T01:32:16;99918.00;;;21.30
22828;BMP180;11580;52.562;13.418;2023-07-29T01:34:53;99894.00;;;21.30
22828;BMP180;11580;52.562;13.418;2023-07-29T01:37:26;99912.00;;;21.20
22828;BMP180;11580;52.562;13.418;2023-07-29T01:40:00;99912.00;;;21.20
22828;BMP180;11580;52.562;13.418;2023-07-29T01:42:29;99908.00;;;21.20
22828;BMP180;11580;52.562;13.418;2023-07-29T01:44:57;99907.00;;;21.20
22828;BMP180;11580;52.562;13.418;2023-07-29T01:47:25;99912.00;;;21.20
22828;BMP180;11580;52.562;13.418;2023-07-29T01:49:54;99919.00;;;21.10
22828;BMP180;11580;52.562;13.418;2023-07-29T01:52:21;99926.00;;;21.20
22828;BMP180;11580;52.562;13.418;2023-07-29T01:54:49;99933.00;;;21.10
22828;BMP180;11580;52.562;13.418;2023-07-29T01:57:18;99932.00;;;21.10
22828;BMP180;11580;52.562;13.418;2023-07-29T01:59:45;99932.00;;;21.10
22828;BMP180;11580;52.562;13.418;2023-07-29T02:02:12;99931.00;;;21.10
22828;BMP180;11580;52.562;13.418;2023-07-29T02:04:40;99922.00;;;21.10
22828;BMP180;11580;52.562;13.418;2023-07-29T02:07:07;99919.00;;;21.10
22828;BMP180;11580;52.562;13.418;2023-07-29T02:09:34;99917.00;;;21.10
22828;BMP180;11580;52.562;13.418;2023-07-29T02:12:01;99921.00;;;21.10
22828;BMP180;11580;52.562;13.418;2023-07-29T02:14:38;99914.00;;;21.10
22828;BMP180;11580;52.562;13.418;2023-07-29T02:17:05;99919.00;;;21.10
22828;BMP180;11580;52.562;13.418;2023-07-29T02:19:32;99916.00;;;21.10
22828;BMP180;11580;52.562;13.418;2023-07-29T02:22:00;99917.00;;;21.10
22828;BMP180;11580;52.562;13.418;2023-07-29T02:24:27;99914.00;;;21.00
22828;BMP180;11580;52.562;13.418;2023-07-29T02:26:54;99916.00;;;21.00
22828;BMP180;11580;52.562;13.418;2023-07-29T02:29:22;99920.00;;;21.00
22828;BMP180;11580;52.562;13.418;2023-07-29T02:31:50;99919.00;;;21.00
22828;BMP180;11580;52.562;13.418;2023-07-29T02:34:18;99919.00;;;20.90
22828;BMP180;11580;52.562;13.418;2023-07-29T02:36:45;99925.00;;;20.90
22828;BMP180;11580;52.562;13.418;2023-07-29T02:39:12;99926.00;;;20.90
22828;BMP180;11580;52.562;13.418;2023-07-29T02:41:40;99928.00;;;20.90
22828;BMP180;11580;52.562;13.418;2023-07-29T02:44:07;99926.00;;;20.90
22828;BMP180;11580;52.562;13.418;2023-07-29T02:46:34;99923.00;;;20.90
22828;BMP180;11580;52.562;13.418;2023-07-29T02:49:03;99925.00;;;21.00
22828;BMP180;11580;52.562;13.418;2023-07-29T02:51:30;99930.00;;;21.00
22828;BMP180;11580;52.562;13.418;2023-07-29T02:53:58;99928.00;;;21.00
22828;BMP180;11580;52.562;13.418;2023-07-29T02:56:25;99926.00;;;21.00
22828;BMP180;11580;52.562;13.418;2023-07-29T02:58:52;99921.00;;;21.00
22828;BMP180;11580;52.562;13.418;2023-07-29T03:01:19;99929.00;;;21.00
22828;BMP180;11580;52.562;13.418;2023-07-29T03:03:47;99921.00;;;21.00
22828;BMP180;11580;52.562;13.418;2023-07-29T03:06:15;99915.00;;;21.00
22828;BMP180;11580;52.562;13.418;2023-07-29T03:08:42;99913.00;;;21.00
22828;BMP180;11580;52.562;13.418;2023-07-29T03:11:14;99906.00;;;21.00
22828;BMP180;11580;52.562;13.418;2023-07-29T03:13:42;99909.00;;;20.90
22828;BMP180;11580;52.562;13.418;2023-07-29T03:16:11;99914.00;;;20.90
22828;BMP180;11580;52.562;13.418;2023-07-29T03:18:40;99908.00;;;20.90
22828;BMP180;11580;52.562;13.418;2023-07-29T03:21:08;99912.00;;;20.90
22828;BMP180;11580;52.562;13.418;2023-07-29T03:23:38;99917.00;;;20.90
22828;BMP180;11580;52.562;13.418;2023-07-29T03:26:05;99911.00;;;20.90
22828;BMP180;11580;52.562;13.418;2023-07-29T03:28:39;99911.00;;;20.90
22828;BMP180;11580;52.562;13.418;2023-07-29T03:31:06;99910.00;;;20.90
22828;BMP180;11580;52.562;13.418;2023-07-29T03:33:33;99902.00;;;20.90
22828;BMP180;11580;52.562;13.418;2023-07-29T03:36:01;99898.00;;;20.90
22828;BMP180;11580;52.562;13.418;2023-07-29T03:38:28;99908.00;;;21.00
22828;BMP180;11580;52.562;13.418;2023-07-29T03:40:57;99907.00;;;21.00
22828;BMP180;11580;52.562;13.418;2023-07-29T03:43:25;99905.00;;;21.10
22828;BMP180;11580;52.562;13.418;2023-07-29T03:45:55;99908.00;;;21.10
22828;BMP180;11580;52.562;13.418;2023-07-29T03:48:22;99901.00;;;21.10
22828;BMP180;11580;52.562;13.418;2023-07-29T03:50:49;99897.00;;;21.20
22828;BMP180;11580;52.562;13.418;2023-07-29T03:53:17;99900.00;;;21.40
22828;BMP180;11580;52.562;13.418;2023-07-29T03:55:44;99893.00;;;21.60
22828;BMP180;11580;52.562;13.418;2023-07-29T03:58:13;99902.00;;;21.80
22828;BMP180;11580;52.562;13.418;2023-07-29T04:00:40;99907.00;;;22.10
22828;BMP180;11580;52.562;13.418;2023-07-29T04:03:08;99908.00;;;22.50
22828;BMP180;11580;52.562;13.418;2023-07-29T04:05:35;99900.00;;;22.70
22828;BMP180;11580;52.562;13.418;2023-07-29T04:08:03;99907.00;;;22.90
22828;BMP180;11580;52.562;13.418;2023-07-29T04:10:30;99916.00;;;23.00
22828;BMP180;11580;52.562;13.418;2023-07-29T04:12:58;99913.00;;;23.00
22828;BMP180;11580;52.562;13.418;2023-07-29T04:15:27;99910.00;;;23.00
22828;BMP180;11580;52.562;13.418;2023-07-29T04:17:54;99904.00;;;23.00
22828;BMP180;11580;52.562;13.418;2023-07-29T04:20:21;99901.00;;;23.10
22828;BMP180;11580;52.562;13.418;2023-07-29T04:22:48;99899.00;;;23.30
22828;BMP180;11580;52.562;13.418;2023-07-29T04:25:16;99907.00;;;23.40
22828;BMP180;11580;52.562;13.418;2023-07-29T04:27:43;99902.00;;;23.60
22828;BMP180;11580;52.562;13.418;2023-07-29T04:30:11;99906.00;;;23.80
22828;BMP180;11580;52.562;13.418;2023-07-29T04:32:39;99895.00;;;24.00
22828;BMP180;11580;52.562;13.418;2023-07-29T04:35:08;99906.00;;;24.10
22828;BMP180;11580;52.562;13.418;2023-07-29T04:37:36;99908.00;;;24.20
22828;BMP180;11580;52.562;13.418;2023-07-29T04:40:05;99903.00;;;24.40
22828;BMP180;11580;52.562;13.418;2023-07-29T04:42:32;99917.00;;;24.70
22828;BMP180;11580;52.562;13.418;2023-07-29T04:44:59;99918.00;;;25.10
22828;BMP180;11580;52.562;13.418;2023-07-29T04:47:27;99918.00;;;25.50
22828;BMP180;11580;52.562;13.418;2023-07-29T04:49:55;99920.00;;;26.00
22828;BMP180;11580;52.562;13.418;2023-07-29T04:52:23;99923.00;;;26.30
22828;BMP180;11580;52.562;13.418;2023-07-29T04:54:50;99929.00;;;26.70
22828;BMP180;11580;52.562;13.418;2023-07-29T04:57:17;99932.00;;;26.90
22828;BMP180;11580;52.562;13.418;2023-07-29T04:59:45;99925.00;;;27.00
22828;BMP180;11580;52.562;13.418;2023-07-29T05:02:12;99929.00;;;27.00
22828;BMP180;11580;52.562;13.418;2023-07-29T05:04:39;99930.00;;;27.10
22828;BMP180;11580;52.562;13.418;2023-07-29T05:07:07;99925.00;;;27.10
22828;BMP180;11580;52.562;13.418;2023-07-29T05:09:35;99925.00;;;27.20
22828;BMP180;11580;52.562;13.418;2023-07-29T05:12:02;99927.00;;;27.20
22828;BMP180;11580;52.562;13.418;2023-07-29T05:14:29;99927.00;;;27.30
22828;BMP180;11580;52.562;13.418;2023-07-29T05:16:57;99922.00;;;27.30
22828;BMP180;11580;52.562;13.418;2023-07-29T05:19:24;99921.00;;;27.40
22828;BMP180;11580;52.562;13.418;2023-07-29T05:21:52;99921.00;;;27.50
22828;BMP180;11580;52.562;13.418;2023-07-29T05:24:20;99919.00;;;27.60
22828;BMP180;11580;52.562;13.418;2023-07-29T05:26:48;99921.00;;;27.60
22828;BMP180;11580;52.562;13.418;2023-07-29T05:29:16;99919.00;;;27.60
22828;BMP180;11580;52.562;13.418;2023-07-29T05:31:43;99916.00;;;27.50
22828;BMP180;11580;52.562;13.418;2023-07-29T05:34:10;99918.00;;;27.50
22828;BMP180;11580;52.562;13.418;2023-07-29T05:36:37;99921.00;;;27.50
22828;BMP180;11580;52.562;13.418;2023-07-29T05:39:05;99920.00;;;27.50
22828;BMP180;11580;52.562;13.418;2023-07-29T05:41:34;99916.00;;;27.50
22828;BMP180;11580;52.562;13.418;2023-07-29T05:44:01;99925.00;;;27.60
22828;BMP180;11580;52.562;13.418;2023-07-29T05:46:28;99927.00;;;27.70
22828;BMP180;11580;52.562;13.418;2023-07-29T05:48:56;99921.00;;;27.70
22828;BMP180;11580;52.562;13.418;2023-07-29T05:51:23;99921.00;;;27.70
22828;BMP180;11580;52.562;13.418;2023-07-29T05:53:50;99918.00;;;27.60
22828;BMP180;11580;52.562;13.418;2023-07-29T05:56:17;99922.00;;;27.50
22828;BMP180;11580;52.562;13.418;2023-07-29T05:58:46;99925.00;;;27.40
22828;BMP180;11580;52.562;13.418;2023-07-29T06:01:13;99916.00;;;27.30
22828;BMP180;11580;52.562;13.418;2023-07-29T06:03:41;99918.00;;;27.20
22828;BMP180;11580;52.562;13.418;2023-07-29T06:06:08;99918.00;;;27.10
22828;BMP180;11580;52.562;13.418;2023-07-29T06:08:35;99903.00;;;27.00
22828;BMP180;11580;52.562;13.418;2023-07-29T06:11:02;99892.00;;;26.90
22828;BMP180;11580;52.562;13.418;2023-07-29T06:13:32;99891.00;;;26.80
22828;BMP180;11580;52.562;13.418;2023-07-29T06:16:00;99886.00;;;26.80
22828;BMP180;11580;52.562;13.418;2023-07-29T06:18:28;99882.00;;;26.70
22828;BMP180;11580;52.562;13.418;2023-07-29T06:20:55;99885.00;;;26.70
22828;BMP180;11580;52.562;13.418;2023-07-29T06:23:22;99877.00;;;26.60
22828;BMP180;11580;52.562;13.418;2023-07-29T06:25:49;99884.00;;;26.60
22828;BMP180;11580;52.562;13.418;2023-07-29T06:28:16;99881.00;;;26.50
22828;BMP180;11580;52.562;13.418;2023-07-29T06:30:44;99887.00;;;26.50
22828;BMP180;11580;52.562;13.418;2023-07-29T06:33:12;99895.00;;;26.50
22828;BMP180;11580;52.562;13.418;2023-07-29T06:35:39;99891.00;;;26.50
22828;BMP180;11580;52.562;13.418;2023-07-29T06:38:08;99891.00;;;26.50
22828;BMP180;11580;52.562;13.418;2023-07-29T06:40:35;99892.00;;;26.50
22828;BMP180;11580;52.562;13.418;2023-07-29T06:43:02;99892.00;;;26.50
22828;BMP180;11580;52.562;13.418;2023-07-29T06:45:29;99896.00;;;26.50
22828;BMP180;11580;52.562;13.418;2023-07-29T06:47:56;99905.00;;;26.60
22828;BMP180;11580;52.562;13.418;2023-07-29T06:50:25;99896.00;;;26.60
22828;BMP180;11580;52.562;13.418;2023-07-29T06:52:52;99900.00;;;26.70
22828;BMP180;11580;52.562;13.418;2023-07-29T06:55:19;99902.00;;;26.70
22828;BMP180;11580;52.562;13.418;2023-07-29T06:57:46;99904.00;;;26.80
22828;BMP180;11580;52.562;13.418;2023-07-29T07:00:14;99906.00;;;26.90
22828;BMP180;11580;52.562;13.418;2023-07-29T07:02:41;99903.00;;;27.00
22828;BMP180;11580;52.562;13.418;2023-07-29T07:05:09;99896.00;;;27.10
22828;BMP180;11580;52.562;13.418;2023-07-29T07:07:38;99909.00;;;27.20
22828;BMP180;11580;52.562;13.418;2023-07-29T07:10:06;99914.00;;;27.30
22828;BMP180;11580;52.562;13.418;2023-07-29T07:12:33;99919.00;;;27.50
22828;BMP180;11580;52.562;13.418;2023-07-29T07:15:00;99905.00;;;27.80
22828;BMP180;11580;52.562;13.418;2023-07-29T07:17:28;99909.00;;;28.00
22828;BMP180;11580;52.562;13.418;2023-07-29T07:19:55;99919.00;;;28.20
22828;BMP180;11580;52.562;13.418;2023-07-29T07:22:22;99919.00;;;28.40
22828;BMP180;11580;52.562;13.418;2023-07-29T07:24:51;99923.00;;;28.60
22828;BMP180;11580;52.562;13.418;2023-07-29T07:27:18;99922.00;;;28.80
22828;BMP180;11580;52.562;13.418;2023-07-29T07:29:45;99926.00;;;29.00
22828;BMP180;11580;52.562;13.418;2023-07-29T07:32:12;99921.00;;;29.10
22828;BMP180;11580;52.562;13.418;2023-07-29T07:34:39;99927.00;;;29.20
22828;BMP180;11580;52.562;13.418;2023-07-29T07:37:07;99928.00;;;29.20
22828;BMP180;11580;52.562;13.418;2023-07-29T07:39:34;99923.00;;;29.20
22828;BMP180;11580;52.562;13.418;2023-07-29T07:42:03;99917.00;;;29.30
22828;BMP180;11580;52.562;13.418;2023-07-29T07:44:30;99917.00;;;29.30
22828;BMP180;11580;52.562;13.418;2023-07-29T07:46:57;99913.00;;;29.40
22828;BMP180;11580;52.562;13.418;2023-07-29T07:49:24;99905.00;;;29.40
22828;BMP180;11580;52.562;13.418;2023-07-29T07:51:51;99910.00;;;29.50
22828;BMP180;11580;52.562;13.418;2023-07-29T07:54:18;99903.00;;;29.60
22828;BMP180;11580;52.562;13.418;2023-07-29T07:56:45;99902.00;;;29.70
22828;BMP180;11580;52.562;13.418;2023-07-29T07:59:14;99900.00;;;29.70
22828;BMP180;11580;52.562;13.418;2023-07-29T08:01:41;99896.00;;;29.90
22828;BMP180;11580;52.562;13.418;2023-07-29T08:04:08;99891.00;;;29.90
22828;BMP180;11580;52.562;13.418;2023-07-29T08:06:35;99891.00;;;30.00
22828;BMP180;11580;52.562;13.418;2023-07-29T08:09:03;99900.00;;;30.00
22828;BMP180;11580;52.562;13.418;2023-07-29T08:11:30;99902.00;;;30.00
22828;BMP180;11580;52.562;13.418;2023-07-29T08:13:58;99893.00;;;30.10
22828;BMP180;11580;52.562;13.418;2023-07-29T08:16:26;99896.00;;;30.10
22828;BMP180;11580;52.562;13.418;2023-07-29T08:18:54;99891.00;;;30.00
22828;BMP180;11580;52.562;13.418;2023-07-29T08:21:21;99892.00;;;30.00
22828;BMP180;11580;52.562;13.418;2023-07-29T08:23:48;99891.00;;;30.00
22828;BMP180;11580;52.562;13.418;2023-07-29T08:26:15;99894.00;;;30.10
22828;BMP180;11580;52.562;13.418;2023-07-29T08:28:42;99896.00;;;30.10
22828;BMP180;11580;52.562;13.418;2023-07-29T08:31:09;99897.00;;;30.30
22828;BMP180;11580;52.562;13.418;2023-07-29T08:33:38;99890.00;;;30.40
22828;BMP180;11580;52.562;13.418;2023-07-29T08:36:05;99897.00;;;30.50
22828;BMP180;11580;52.562;13.418;2023-07-29T08:38:32;99890.00;;;30.60
22828;BMP180;11580;52.562;13.418;2023-07-29T08:41:14;99889.00;;;30.70
22828;BMP180;11580;52.562;13.418;2023-07-29T08:43:50;99885.00;;;30.80
22828;BMP180;11580;52.562;13.418;2023-07-29T08:46:19;99884.00;;;30.90
22828;BMP180;11580;52.562;13.418;2023-07-29T08:48:48;99882.00;;;31.00
22828;BMP180;11580;52.562;13.418;2023-07-29T08:51:18;99883.00;;;31.20
22828;BMP180;11580;52.562;13.418;2023-07-29T08:53:46;99888.00;;;31.30
22828;BMP180;11580;52.562;13.418;2023-07-29T08:56:15;99886.00;;;31.50
22828;BMP180;11580;52.562;13.418;2023-07-29T08:58:43;99884.00;;;31.70
22828;BMP180;11580;52.562;13.418;2023-07-29T09:01:10;99881.00;;;31.70
22828;BMP180;11580;52.562;13.418;2023-07-29T09:03:37;99886.00;;;31.80
22828;BMP180;11580;52.562;13.418;2023-07-29T09:06:07;99889.00;;;31.80
22828;BMP180;11580;52.562;13.418;2023-07-29T09:08:35;99885.00;;;31.70
22828;BMP180;11580;52.562;13.418;2023-07-29T09:11:02;99894.00;;;31.70
22828;BMP180;11580;52.562;13.418;2023-07-29T09:13:30;99884.00;;;31.70
22828;BMP180;11580;52.562;13.418;2023-07-29T09:15:58;99884.00;;;31.70
22828;BMP180;11580;52.562;13.418;2023-07-29T09:18:27;99881.00;;;31.70
22828;BMP180;11580;52.562;13.418;2023-07-29T09:20:58;99880.00;;;31.80
22828;BMP180;11580;52.562;13.418;2023-07-29T09:23:27;99877.00;;;31.90
22828;BMP180;11580;52.562;13.418;2023-07-29T09:26:01;99873.00;;;32.00
22828;BMP180;11580;52.562;13.418;2023-07-29T09:28:33;99869.00;;;32.10
22828;BMP180;11580;52.562;13.418;2023-07-29T09:31:02;99867.00;;;32.30
22828;BMP180;11580;52.562;13.418;2023-07-29T09:33:29;99873.00;;;32.50
22828;BMP180;11580;52.562;13.418;2023-07-29T09:35:58;99868.00;;;32.60
22828;BMP180;11580;52.562;13.418;2023-07-29T09:38:29;99869.00;;;32.80
22828;BMP180;11580;52.562;13.418;2023-07-29T09:40:57;99859.00;;;32.90
22828;BMP180;11580;52.562;13.418;2023-07-29T09:43:30;99859.00;;;33.10
22828;BMP180;11580;52.562;13.418;2023-07-29T09:46:00;99857.00;;;33.20
22828;BMP180;11580;52.562;13.418;2023-07-29T09:48:32;99852.00;;;33.30
22828;BMP180;11580;52.562;13.418;2023-07-29T09:50:59;99858.00;;;33.40
22828;BMP180;11580;52.562;13.418;2023-07-29T09:53:26;99855.00;;;33.50
22828;BMP180;11580;52.562;13.418;2023-07-29T09:55:55;99852.00;;;33.60
22828;BMP180;11580;52.562;13.418;2023-07-29T09:58:27;99851.00;;;33.60
22828;BMP180;11580;52.562;13.418;2023-07-29T10:00:54;99841.00;;;33.60
22828;BMP180;11580;52.562;13.418;2023-07-29T10:03:22;99848.00;;;33.60
22828;BMP180;11580;52.562;13.418;2023-07-29T10:05:50;99844.00;;;33.60
22828;BMP180;11580;52.562;13.418;2023-07-29T10:08:18;99835.00;;;33.60
22828;BMP180;11580;52.562;13.418;2023-07-29T10:10:48;99834.00;;;33.60
22828;BMP180;11580;52.562;13.418;2023-07-29T10:13:18;99832.00;;;33.60
22828;BMP180;11580;52.562;13.418;2023-07-29T10:15:46;99818.00;;;33.60
22828;BMP180;11580;52.562;13.418;2023-07-29T10:18:15;99825.00;;;33.60
22828;BMP180;11580;52.562;13.418;2023-07-29T10:20:43;99827.00;;;33.60
22828;BMP180;11580;52.562;13.418;2023-07-29T10:23:12;99831.00;;;33.70
22828;BMP180;11580;52.562;13.418;2023-07-29T10:25:47;99811.00;;;33.70
22828;BMP180;11580;52.562;13.418;2023-07-29T10:28:20;99819.00;;;33.70
22828;BMP180;11580;52.562;13.418;2023-07-29T10:30:51;99818.00;;;33.60
22828;BMP180;11580;52.562;13.418;2023-07-29T10:33:18;99818.00;;;33.50
22828;BMP180;11580;52.562;13.418;2023-07-29T10:35:46;99796.00;;;33.40
22828;BMP180;11580;52.562;13.418;2023-07-29T10:38:14;99794.00;;;33.20
22828;BMP180;11580;52.562;13.418;2023-07-29T10:40:47;99796.00;;;33.10
22828;BMP180;11580;52.562;13.418;2023-07-29T10:43:25;99788.00;;;33.00
22828;BMP180;11580;52.562;13.418;2023-07-29T10:45:53;99785.00;;;33.00
22828;BMP180;11580;52.562;13.418;2023-07-29T10:48:40;99776.00;;;33.00
22828;BMP180;11580;52.562;13.418;2023-07-29T10:51:24;99771.00;;;33.10
22828;BMP180;11580;52.562;13.418;2023-07-29T10:53:57;99769.00;;;33.20
22828;BMP180;11580;52.562;13.418;2023-07-29T10:56:28;99770.00;;;33.20
22828;BMP180;11580;52.562;13.418;2023-07-29T10:58:59;99763.00;;;33.20
22828;BMP180;11580;52.562;13.418;2023-07-29T11:01:30;99766.00;;;33.10
22828;BMP180;11580;52.562;13.418;2023-07-29T11:04:23;99763.00;;;32.90
22828;BMP180;11580;52.562;13.418;2023-07-29T11:07:20;99774.00;;;32.70
22828;BMP180;11580;52.562;13.418;2023-07-29T11:09:59;99784.00;;;32.40
22828;BMP180;11580;52.562;13.418;2023-07-29T11:12:50;99783.00;;;32.20
22828;BMP180;11580;52.562;13.418;2023-07-29T11:15:23;99782.00;;;31.90
22828;BMP180;11580;52.562;13.418;2023-07-29T11:17:53;99796.00;;;31.60
22828;BMP180;11580;52.562;13.418;2023-07-29T11:20:24;99842.00;;;31.30
22828;BMP180;11580;52.562;13.418;2023-07-29T11:22:52;99859.00;;;30.80
22828;BMP180;11580;52.562;13.418;2023-07-29T11:25:22;99818.00;;;30.20
22828;BMP180;11580;52.562;13.418;2023-07-29T11:27:52;99818.00;;;29.40
22828;BMP180;11580;52.562;13.418;2023-07-29T11:30:21;99829.00;;;28.60
22828;BMP180;11580;52.562;13.418;2023-07-29T11:32:50;99835.00;;;27.80
22828;BMP180;11580;52.562;13.418;2023-07-29T11:35:18;99826.00;;;27.20
22828;BMP180;11580;52.562;13.418;2023-07-29T11:37:47;99812.00;;;26.70
22828;BMP180;11580;52.562;13.418;2023-07-29T11:40:16;99793.00;;;26.30
22828;BMP180;11580;52.562;13.418;2023-07-29T11:42:45;99784.00;;;26.00
22828;BMP180;11580;52.562;13.418;2023-07-29T11:45:13;99793.00;;;25.80
22828;BMP180;11580;52.562;13.418;2023-07-29T11:47:42;99791.00;;;25.60
22828;BMP180;11580;52.562;13.418;2023-07-29T11:50:12;99797.00;;;25.50
22828;BMP180;11580;52.562;13.418;2023-07-29T11:52:41;99795.00;;;25.40
22828;BMP180;11580;52.562;13.418;2023-07-29T11:55:09;99789.00;;;25.30
22828;BMP180;11580;52.562;13.418;2023-07-29T11:57:38;99788.00;;;25.30
22828;BMP180;11580;52.562;13.418;2023-07-29T12:00:08;99789.00;;;25.30
22828;BMP180;11580;52.562;13.418;2023-07-29T12:02:40;99788.00;;;25.30
22828;BMP180;11580;52.562;13.418;2023-07-29T12:05:10;99772.00;;;25.40
22828;BMP180;11580;52.562;13.418;2023-07-29T12:07:39;99770.00;;;25.40
22828;BMP180;11580;52.562;13.418;2023-07-29T12:10:07;99763.00;;;25.50
22828;BMP180;11580;52.562;13.418;2023-07-29T12:12:44;99769.00;;;25.50
22828;BMP180;11580;52.562;13.418;2023-07-29T12:15:11;99773.00;;;25.50
22828;BMP180;11580;52.562;13.418;2023-07-29T12:17:41;99774.00;;;25.50
22828;BMP180;11580;52.562;13.418;2023-07-29T12:20:11;99772.00;;;25.60
22828;BMP180;11580;52.562;13.418;2023-07-29T12:22:38;99784.00;;;25.60
22828;BMP180;11580;52.562;13.418;2023-07-29T12:25:06;99777.00;;;25.70
22828;BMP180;11580;52.562;13.418;2023-07-29T12:27:33;99782.00;;;25.70
22828;BMP180;11580;52.562;13.418;2023-07-29T12:30:02;99783.00;;;25.80
22828;BMP180;11580;52.562;13.418;2023-07-29T12:32:30;99784.00;;;25.90
22828;BMP180;11580;52.562;13.418;2023-07-29T12:34:57;99780.00;;;26.00
22828;BMP180;11580;52.562;13.418;2023-07-29T12:37:33;99785.00;;;26.10
22828;BMP180;11580;52.562;13.418;2023-07-29T12:40:00;99782.00;;;26.20
22828;BMP180;11580;52.562;13.418;2023-07-29T12:42:27;99783.00;;;26.30
22828;BMP180;11580;52.562;13.418;2023-07-29T12:44:54;99775.00;;;26.40
22828;BMP180;11580;52.562;13.418;2023-07-29T12:47:21;99782.00;;;26.50
22828;BMP180;11580;52.562;13.418;2023-07-29T12:49:48;99775.00;;;26.70
22828;BMP180;11580;52.562;13.418;2023-07-29T12:52:16;99770.00;;;26.80
22828;BMP180;11580;52.562;13.418;2023-07-29T12:54:45;99771.00;;;27.10
22828;BMP180;11580;52.562;13.418;2023-07-29T12:57:12;99759.00;;;27.30
22828;BMP180;11580;52.562;13.418;2023-07-29T12:59:39;99755.00;;;27.60
22828;BMP180;11580;52.562;13.418;2023-07-29T13:02:06;99756.00;;;27.90
22828;BMP180;11580;52.562;13.418;2023-07-29T13:04:34;99752.00;;;28.20
22828;BMP180;11580;52.562;13.418;2023-07-29T13:07:01;99749.00;;;28.40
22828;BMP180;11580;52.562;13.418;2023-07-29T13:09:28;99751.00;;;28.60
22828;BMP180;11580;52.562;13.418;2023-07-29T13:11:57;99758.00;;;28.80
22828;BMP180;11580;52.562;13.418;2023-07-29T13:14:24;99769.00;;;29.00
22828;BMP180;11580;52.562;13.418;2023-07-29T13:16:52;99771.00;;;29.20
22828;BMP180;11580;52.562;13.418;2023-07-29T13:19:19;99779.00;;;29.30
22828;BMP180;11580;52.562;13.418;2023-07-29T13:21:46;99777.00;;;29.40
22828;BMP180;11580;52.562;13.418;2023-07-29T13:24:14;99777.00;;;29.40
22828;BMP180;11580;52.562;13.418;2023-07-29T13:26:41;99775.00;;;29.40
22828;BMP180;11580;52.562;13.418;2023-07-29T13:29:09;99773.00;;;29.40
22828;BMP180;11580;52.562;13.418;2023-07-29T13:31:36;99776.00;;;29.40
22828;BMP180;11580;52.562;13.418;2023-07-29T13:34:03;99775.00;;;29.40
22828;BMP180;11580;52.562;13.418;2023-07-29T13:36:31;99780.00;;;29.50
22828;BMP180;11580;52.562;13.418;2023-07-29T13:38:58;99779.00;;;29.50
22828;BMP180;11580;52.562;13.418;2023-07-29T13:41:25;99774.00;;;29.60
22828;BMP180;11580;52.562;13.418;2023-07-29T13:43:52;99777.00;;;29.70
22828;BMP180;11580;52.562;13.418;2023-07-29T13:46:20;99766.00;;;29.90
22828;BMP180;11580;52.562;13.418;2023-07-29T13:48:48;99761.00;;;30.00
22828;BMP180;11580;52.562;13.418;2023-07-29T13:51:15;99754.00;;;30.20
22828;BMP180;11580;52.562;13.418;2023-07-29T13:53:42;99752.00;;;30.30
22828;BMP180;11580;52.562;13.418;2023-07-29T13:56:09;99749.00;;;30.40
22828;BMP180;11580;52.562;13.418;2023-07-29T13:58:36;99745.00;;;30.50
22828;BMP180;11580;52.562;13.418;2023-07-29T14:01:04;99739.00;;;30.70
22828;BMP180;11580;52.562;13.418;2023-07-29T14:03:32;99745.00;;;30.80
22828;BMP180;11580;52.562;13.418;2023-07-29T14:05:59;99736.00;;;30.90